RJFC(METAR)
12/11 18:00
RJFC 110900Z 18010KT 9999 RA FEW020 SCT030 BKNXXX 19/18 Q1015 RMK
A2997=
戻る
トップページへ戻る
IMOC Co,.Ltd.